sensor_id;sensor_type;location;lat;lon;timestamp;pressure;altitude;pressure_sealevel;temperature;humidity
31771;BME280;18343;50.152;8.182;2022-09-29T00:01:32;95933.19;;;10.36;97.52
31771;BME280;18343;50.152;8.182;2022-09-29T00:03:59;95930.72;;;10.34;97.60
31771;BME280;18343;50.152;8.182;2022-09-29T00:06:26;95928.28;;;10.33;97.45
31771;BME280;18343;50.152;8.182;2022-09-29T00:08:52;95928.50;;;10.31;97.26
31771;BME280;18343;50.152;8.182;2022-09-29T00:11:19;95920.91;;;10.28;97.33
31771;BME280;18343;50.152;8.182;2022-09-29T00:13:47;95929.78;;;10.29;97.15
31771;BME280;18343;50.152;8.182;2022-09-29T00:16:14;95930.00;;;10.27;97.27
31771;BME280;18343;50.152;8.182;2022-09-29T00:18:40;95927.53;;;10.26;97.09
31771;BME280;18343;50.152;8.182;2022-09-29T00:21:09;95925.06;;;10.24;96.86
31771;BME280;18343;50.152;8.182;2022-09-29T00:23:37;95933.97;;;10.25;96.78
31771;BME280;18343;50.152;8.182;2022-09-29T00:26:06;95931.50;;;10.23;96.79
31771;BME280;18343;50.152;8.182;2022-09-29T00:28:35;95926.34;;;10.22;96.53
31771;BME280;18343;50.152;8.182;2022-09-29T00:31:03;95934.63;;;10.20;96.95
31771;BME280;18343;50.152;8.182;2022-09-29T00:33:30;95929.25;;;10.20;96.54
31771;BME280;18343;50.152;8.182;2022-09-29T00:36:02;95928.63;;;10.18;96.45
31771;BME280;18343;50.152;8.182;2022-09-29T00:38:30;95930.50;;;10.17;96.45
31771;BME280;18343;50.152;8.182;2022-09-29T00:40:57;95924.31;;;10.17;96.33
31771;BME280;18343;50.152;8.182;2022-09-29T00:43:50;95929.09;;;10.15;96.44
31771;BME280;18343;50.152;8.182;2022-09-29T00:46:20;95925.81;;;10.13;96.02
31771;BME280;18343;50.152;8.182;2022-09-29T00:48:48;95930.34;;;10.12;96.11
31771;BME280;18343;50.152;8.182;2022-09-29T00:51:16;95922.56;;;10.11;96.05
31771;BME280;18343;50.152;8.182;2022-09-29T00:53:44;95926.06;;;10.11;95.87
31771;BME280;18343;50.152;8.182;2022-09-29T00:56:14;95923.81;;;10.08;95.78
31771;BME280;18343;50.152;8.182;2022-09-29T00:58:47;95917.03;;;10.06;95.70
31771;BME280;18343;50.152;8.182;2022-09-29T01:01:20;95916.22;;;10.05;95.65
31771;BME280;18343;50.152;8.182;2022-09-29T01:03:48;95920.75;;;10.05;95.75
31771;BME280;18343;50.152;8.182;2022-09-29T01:06:21;95923.91;;;10.02;95.53
31771;BME280;18343;50.152;8.182;2022-09-29T01:08:56;95914.19;;;10.01;95.34
31771;BME280;18343;50.152;8.182;2022-09-29T01:11:24;95917.94;;;10.00;95.19
31771;BME280;18343;50.152;8.182;2022-09-29T01:13:51;95912.78;;;9.98;94.81
31771;BME280;18343;50.152;8.182;2022-09-29T01:16:20;95913.81;;;9.97;94.99
31771;BME280;18343;50.152;8.182;2022-09-29T01:18:46;95907.03;;;9.95;95.04
31771;BME280;18343;50.152;8.182;2022-09-29T01:21:22;95916.16;;;9.94;94.94
31771;BME280;18343;50.152;8.182;2022-09-29T01:24:19;95912.88;;;9.92;94.96
31771;BME280;18343;50.152;8.182;2022-09-29T01:27:18;95908.75;;;9.89;94.78
31771;BME280;18343;50.152;8.182;2022-09-29T01:30:05;95908.97;;;9.88;94.88
31771;BME280;18343;50.152;8.182;2022-09-29T01:32:57;95909.22;;;9.86;94.57
31771;BME280;18343;50.152;8.182;2022-09-29T01:35:34;95911.31;;;9.84;94.45
31771;BME280;18343;50.152;8.182;2022-09-29T01:38:21;95904.53;;;9.81;94.35
31771;BME280;18343;50.152;8.182;2022-09-29T01:40:57;95914.47;;;9.81;94.31
31771;BME280;18343;50.152;8.182;2022-09-29T01:43:33;95912.00;;;9.79;94.34
31771;BME280;18343;50.152;8.182;2022-09-29T01:46:03;95912.81;;;9.80;94.14
31771;BME280;18343;50.152;8.182;2022-09-29T01:48:36;95914.09;;;9.77;93.94
31771;BME280;18343;50.152;8.182;2022-09-29T01:51:08;95917.00;;;9.76;94.02
31771;BME280;18343;50.152;8.182;2022-09-29T01:53:42;95920.72;;;9.75;93.91
31771;BME280;18343;50.152;8.182;2022-09-29T01:56:15;95921.75;;;9.74;93.60
31771;BME280;18343;50.152;8.182;2022-09-29T01:58:51;95916.63;;;9.72;93.67
31771;BME280;18343;50.152;8.182;2022-09-29T02:01:21;95919.31;;;9.72;93.44
31771;BME280;18343;50.152;8.182;2022-09-29T02:03:56;95924.06;;;9.70;93.43
31771;BME280;18343;50.152;8.182;2022-09-29T02:06:29;95923.25;;;9.70;93.31
31771;BME280;18343;50.152;8.182;2022-09-29T02:08:58;95917.06;;;9.69;93.27
31771;BME280;18343;50.152;8.182;2022-09-29T02:11:28;95912.97;;;9.67;93.04
31771;BME280;18343;50.152;8.182;2022-09-29T02:14:03;95919.38;;;9.66;93.18
31771;BME280;18343;50.152;8.182;2022-09-29T02:16:36;95922.28;;;9.64;93.02
31771;BME280;18343;50.152;8.182;2022-09-29T02:19:11;95920.03;;;9.61;93.06
31771;BME280;18343;50.152;8.182;2022-09-29T02:21:42;95920.03;;;9.61;92.89
31771;BME280;18343;50.152;8.182;2022-09-29T02:24:09;95929.13;;;9.60;92.98
31771;BME280;18343;50.152;8.182;2022-09-29T02:26:36;95928.31;;;9.60;92.62
31771;BME280;18343;50.152;8.182;2022-09-29T02:29:04;95931.00;;;9.60;92.65
31771;BME280;18343;50.152;8.182;2022-09-29T02:31:32;95931.22;;;9.58;92.48
31771;BME280;18343;50.152;8.182;2022-09-29T02:33:59;95925.28;;;9.56;92.47
31771;BME280;18343;50.152;8.182;2022-09-29T02:36:35;95927.38;;;9.54;92.47
31771;BME280;18343;50.152;8.182;2022-09-29T02:42:22;95926.16;;;9.50;92.08
31771;BME280;18343;50.152;8.182;2022-09-29T02:45:08;95924.53;;;9.49;92.09
31771;BME280;18343;50.152;8.182;2022-09-29T02:47:56;95925.56;;;9.48;91.99
31771;BME280;18343;50.152;8.182;2022-09-29T02:50:46;95928.47;;;9.46;91.98
31771;BME280;18343;50.152;8.182;2022-09-29T02:53:24;95924.38;;;9.44;92.03
31771;BME280;18343;50.152;8.182;2022-09-29T02:56:02;95929.72;;;9.44;91.85
31771;BME280;18343;50.152;8.182;2022-09-29T02:58:37;95928.09;;;9.43;91.73
31771;BME280;18343;50.152;8.182;2022-09-29T03:01:05;95931.81;;;9.42;91.53
31771;BME280;18343;50.152;8.182;2022-09-29T03:03:32;95937.41;;;9.40;91.51
31771;BME280;18343;50.152;8.182;2022-09-29T03:05:59;95928.53;;;9.40;91.48
31771;BME280;18343;50.152;8.182;2022-09-29T03:08:25;95926.88;;;9.39;91.42
31771;BME280;18343;50.152;8.182;2022-09-29T03:10:52;95922.56;;;9.38;91.33
31771;BME280;18343;50.152;8.182;2022-09-29T03:13:18;95935.16;;;9.37;91.23
31771;BME280;18343;50.152;8.182;2022-09-29T03:15:46;95926.50;;;9.35;91.27
31771;BME280;18343;50.152;8.182;2022-09-29T03:18:12;95926.50;;;9.35;91.03
31771;BME280;18343;50.152;8.182;2022-09-29T03:20:39;95922.19;;;9.34;90.88
31771;BME280;18343;50.152;8.182;2022-09-29T03:23:05;95926.94;;;9.32;90.83
31771;BME280;18343;50.152;8.182;2022-09-29T03:25:32;95928.25;;;9.30;90.66
31771;BME280;18343;50.152;8.182;2022-09-29T03:27:59;95919.59;;;9.28;90.58
31771;BME280;18343;50.152;8.182;2022-09-29T03:30:25;95926.00;;;9.27;90.56
31771;BME280;18343;50.152;8.182;2022-09-29T03:32:52;95929.72;;;9.26;90.43
31771;BME280;18343;50.152;8.182;2022-09-29T03:35:19;95929.94;;;9.24;90.51
31771;BME280;18343;50.152;8.182;2022-09-29T03:37:45;95925.63;;;9.23;90.24
31771;BME280;18343;50.152;8.182;2022-09-29T03:40:12;95933.88;;;9.22;90.15
31771;BME280;18343;50.152;8.182;2022-09-29T03:42:39;95924.19;;;9.21;90.16
31771;BME280;18343;50.152;8.182;2022-09-29T03:45:07;95939.47;;;9.20;90.23
31771;BME280;18343;50.152;8.182;2022-09-29T03:47:34;95935.97;;;9.20;90.07
31771;BME280;18343;50.152;8.182;2022-09-29T03:50:01;95934.53;;;9.17;90.00
31771;BME280;18343;50.152;8.182;2022-09-29T03:52:28;95928.34;;;9.16;90.03
31771;BME280;18343;50.152;8.182;2022-09-29T03:54:54;95933.94;;;9.15;89.79
31771;BME280;18343;50.152;8.182;2022-09-29T03:57:21;95935.78;;;9.14;89.41
31771;BME280;18343;50.152;8.182;2022-09-29T03:59:47;95936.00;;;9.13;89.71
31771;BME280;18343;50.152;8.182;2022-09-29T04:02:14;95938.09;;;9.11;89.50
31771;BME280;18343;50.152;8.182;2022-09-29T04:04:43;95934.59;;;9.10;89.51
31771;BME280;18343;50.152;8.182;2022-09-29T04:07:10;95949.03;;;9.09;89.31
31771;BME280;18343;50.152;8.182;2022-09-29T04:09:37;95944.72;;;9.08;89.18
31771;BME280;18343;50.152;8.182;2022-09-29T04:12:04;95946.78;;;9.06;89.19
31771;BME280;18343;50.152;8.182;2022-09-29T04:14:30;95943.50;;;9.04;89.09
31771;BME280;18343;50.152;8.182;2022-09-29T04:16:57;95948.88;;;9.04;89.13
31771;BME280;18343;50.152;8.182;2022-09-29T04:19:23;95948.88;;;9.04;89.14
31771;BME280;18343;50.152;8.182;2022-09-29T04:21:50;95951.19;;;9.01;89.30
31771;BME280;18343;50.152;8.182;2022-09-29T04:24:17;95952.84;;;9.02;88.89
31771;BME280;18343;50.152;8.182;2022-09-29T04:26:43;95953.28;;;8.99;88.56
31771;BME280;18343;50.152;8.182;2022-09-29T04:29:10;95956.16;;;8.97;88.61
31771;BME280;18343;50.152;8.182;2022-09-29T04:31:36;95951.25;;;8.94;88.69
31771;BME280;18343;50.152;8.182;2022-09-29T04:34:03;95953.09;;;8.94;88.61
31771;BME280;18343;50.152;8.182;2022-09-29T04:36:29;95952.50;;;8.92;88.41
31771;BME280;18343;50.152;8.182;2022-09-29T04:38:56;95953.53;;;8.91;88.40
31771;BME280;18343;50.152;8.182;2022-09-29T04:41:23;95958.06;;;8.90;88.09
31771;BME280;18343;50.152;8.182;2022-09-29T04:43:49;95956.66;;;8.88;88.30
31771;BME280;18343;50.152;8.182;2022-09-29T04:46:16;95956.66;;;8.88;88.21
31771;BME280;18343;50.152;8.182;2022-09-29T04:48:42;95960.38;;;8.87;88.05
31771;BME280;18343;50.152;8.182;2022-09-29T04:51:09;95955.22;;;8.85;88.07
31771;BME280;18343;50.152;8.182;2022-09-29T04:53:36;95954.19;;;8.86;88.05
31771;BME280;18343;50.152;8.182;2022-09-29T04:56:07;95950.91;;;8.84;88.15
31771;BME280;18343;50.152;8.182;2022-09-29T04:58:35;95949.25;;;8.83;87.94
31771;BME280;18343;50.152;8.182;2022-09-29T05:01:11;95954.84;;;8.81;87.97
31771;BME280;18343;50.152;8.182;2022-09-29T05:03:38;95953.78;;;8.82;87.91
31771;BME280;18343;50.152;8.182;2022-09-29T05:06:06;95959.38;;;8.81;87.93
31771;BME280;18343;50.152;8.182;2022-09-29T05:08:34;95958.56;;;8.80;87.78
31771;BME280;18343;50.152;8.182;2022-09-29T05:11:04;95960.41;;;8.80;87.76
31771;BME280;18343;50.152;8.182;2022-09-29T05:13:30;95952.59;;;8.78;87.77
31771;BME280;18343;50.152;8.182;2022-09-29T05:15:57;95958.16;;;8.77;87.65
31771;BME280;18343;50.152;8.182;2022-09-29T05:18:24;95959.19;;;8.76;87.60
31771;BME280;18343;50.152;8.182;2022-09-29T05:20:51;95968.31;;;8.75;87.40
31771;BME280;18343;50.152;8.182;2022-09-29T05:23:18;95972.03;;;8.74;87.39
31771;BME280;18343;50.152;8.182;2022-09-29T05:25:45;95967.91;;;8.71;87.24
31771;BME280;18343;50.152;8.182;2022-09-29T05:28:13;95972.44;;;8.71;87.46
31771;BME280;18343;50.152;8.182;2022-09-29T05:30:40;95968.13;;;8.70;87.14
31771;BME280;18343;50.152;8.182;2022-09-29T05:33:08;95977.41;;;8.67;87.22
31771;BME280;18343;50.152;8.182;2022-09-29T05:35:34;95973.09;;;8.66;87.16
31771;BME280;18343;50.152;8.182;2022-09-29T05:38:01;95971.66;;;8.64;87.11
31771;BME280;18343;50.152;8.182;2022-09-29T05:40:28;95981.56;;;8.63;86.94
31771;BME280;18343;50.152;8.182;2022-09-29T05:42:54;95979.09;;;8.62;86.90
31771;BME280;18343;50.152;8.182;2022-09-29T05:45:21;95982.81;;;8.61;86.73
31771;BME280;18343;50.152;8.182;2022-09-29T05:47:47;95982.00;;;8.60;86.74
31771;BME280;18343;50.152;8.182;2022-09-29T05:50:14;95979.53;;;8.59;86.72
31771;BME280;18343;50.152;8.182;2022-09-29T05:52:41;95979.75;;;8.57;86.70
31771;BME280;18343;50.152;8.182;2022-09-29T05:55:26;95984.50;;;8.55;86.76
31771;BME280;18343;50.152;8.182;2022-09-29T05:57:52;95984.50;;;8.55;86.64
31771;BME280;18343;50.152;8.182;2022-09-29T06:00:19;95989.84;;;8.55;86.68
31771;BME280;18343;50.152;8.182;2022-09-29T06:02:46;95997.06;;;8.55;86.38
31771;BME280;18343;50.152;8.182;2022-09-29T06:05:12;95995.63;;;8.52;86.54
31771;BME280;18343;50.152;8.182;2022-09-29T06:07:40;95987.81;;;8.51;86.59
31771;BME280;18343;50.152;8.182;2022-09-29T06:10:07;96000.19;;;8.52;86.56
31771;BME280;18343;50.152;8.182;2022-09-29T06:12:35;95998.53;;;8.51;86.63
31771;BME280;18343;50.152;8.182;2022-09-29T06:15:03;95997.72;;;8.50;86.33
31771;BME280;18343;50.152;8.182;2022-09-29T06:17:29;96001.41;;;8.49;86.25
31771;BME280;18343;50.152;8.182;2022-09-29T06:19:56;95992.00;;;8.46;86.18
31771;BME280;18343;50.152;8.182;2022-09-29T06:22:23;95994.66;;;8.46;86.46
31771;BME280;18343;50.152;8.182;2022-09-29T06:24:50;95997.56;;;8.45;86.44
31771;BME280;18343;50.152;8.182;2022-09-29T06:27:17;95996.72;;;8.44;86.42
31771;BME280;18343;50.152;8.182;2022-09-29T06:29:43;95998.81;;;8.42;86.19
31771;BME280;18343;50.152;8.182;2022-09-29T06:32:10;95996.94;;;8.43;86.49
31771;BME280;18343;50.152;8.182;2022-09-29T06:34:36;96004.16;;;8.42;86.16
31771;BME280;18343;50.152;8.182;2022-09-29T06:37:24;96001.47;;;8.42;86.43
31771;BME280;18343;50.152;8.182;2022-09-29T06:40:01;95999.84;;;8.41;86.35
31771;BME280;18343;50.152;8.182;2022-09-29T06:42:27;96005.19;;;8.41;86.41
31771;BME280;18343;50.152;8.182;2022-09-29T06:44:54;96009.72;;;8.41;86.27
31771;BME280;18343;50.152;8.182;2022-09-29T06:47:21;96008.09;;;8.40;86.28
31771;BME280;18343;50.152;8.182;2022-09-29T06:49:47;96009.72;;;8.41;86.21
31771;BME280;18343;50.152;8.182;2022-09-29T06:52:16;96009.94;;;8.39;86.36
31771;BME280;18343;50.152;8.182;2022-09-29T06:54:42;96008.31;;;8.38;86.32
31771;BME280;18343;50.152;8.182;2022-09-29T06:57:10;96010.97;;;8.38;86.28
31771;BME280;18343;50.152;8.182;2022-09-29T06:59:36;96009.34;;;8.37;86.12
31771;BME280;18343;50.152;8.182;2022-09-29T07:02:03;96007.69;;;8.36;86.40
31771;BME280;18343;50.152;8.182;2022-09-29T07:04:29;96009.75;;;8.34;86.39
31771;BME280;18343;50.152;8.182;2022-09-29T07:06:56;96012.44;;;8.34;86.33
31771;BME280;18343;50.152;8.182;2022-09-29T07:09:22;96015.50;;;8.31;86.16
31771;BME280;18343;50.152;8.182;2022-09-29T07:11:50;96015.09;;;8.28;86.09
31771;BME280;18343;50.152;8.182;2022-09-29T07:14:19;96014.50;;;8.26;86.35
31771;BME280;18343;50.152;8.182;2022-09-29T07:16:47;96005.84;;;8.24;86.24
31771;BME280;18343;50.152;8.182;2022-09-29T07:19:15;96008.75;;;8.22;86.63
31771;BME280;18343;50.152;8.182;2022-09-29T07:21:43;96010.59;;;8.22;86.31
31771;BME280;18343;50.152;8.182;2022-09-29T07:24:09;96014.09;;;8.22;86.71
31771;BME280;18343;50.152;8.182;2022-09-29T07:26:36;96010.59;;;8.22;86.60
31771;BME280;18343;50.152;8.182;2022-09-29T07:29:03;96015.94;;;8.22;86.74
31771;BME280;18343;50.152;8.182;2022-09-29T07:31:30;96012.44;;;8.21;86.74
31771;BME280;18343;50.152;8.182;2022-09-29T07:33:56;96014.09;;;8.22;86.88
31771;BME280;18343;50.152;8.182;2022-09-29T07:36:23;96018.63;;;8.22;86.86
31771;BME280;18343;50.152;8.182;2022-09-29T07:38:51;96013.06;;;8.23;86.93
31771;BME280;18343;50.152;8.182;2022-09-29T07:41:20;96009.56;;;8.23;86.93
31771;BME280;18343;50.152;8.182;2022-09-29T07:43:47;96014.72;;;8.24;87.22
31771;BME280;18343;50.152;8.182;2022-09-29T07:46:13;96020.06;;;8.24;87.25
31771;BME280;18343;50.152;8.182;2022-09-29T07:48:40;96023.56;;;8.25;87.38
31771;BME280;18343;50.152;8.182;2022-09-29T07:51:10;96022.53;;;8.26;87.26
31771;BME280;18343;50.152;8.182;2022-09-29T07:53:38;96030.34;;;8.27;87.70
31771;BME280;18343;50.152;8.182;2022-09-29T07:56:07;96027.47;;;8.29;87.64
31771;BME280;18343;50.152;8.182;2022-09-29T07:58:34;96029.31;;;8.28;87.68
31771;BME280;18343;50.152;8.182;2022-09-29T08:01:02;96024.56;;;8.30;87.84
31771;BME280;18343;50.152;8.182;2022-09-29T08:03:30;96032.41;;;8.32;87.78
31771;BME280;18343;50.152;8.182;2022-09-29T08:05:57;96032.41;;;8.32;88.10
31771;BME280;18343;50.152;8.182;2022-09-29T08:08:24;96030.34;;;8.34;88.21
31771;BME280;18343;50.152;8.182;2022-09-29T08:10:51;96037.38;;;8.35;88.29
31771;BME280;18343;50.152;8.182;2022-09-29T08:13:17;96034.47;;;8.36;88.28
31771;BME280;18343;50.152;8.182;2022-09-29T08:15:44;96037.16;;;8.36;88.73
31771;BME280;18343;50.152;8.182;2022-09-29T08:18:10;96040.44;;;8.38;88.57
31771;BME280;18343;50.152;8.182;2022-09-29T08:20:37;96039.41;;;8.39;88.79
31771;BME280;18343;50.152;8.182;2022-09-29T08:23:04;96045.38;;;8.41;88.85
31771;BME280;18343;50.152;8.182;2022-09-29T08:25:31;96051.34;;;8.43;89.17
31771;BME280;18343;50.152;8.182;2022-09-29T08:28:00;96048.47;;;8.45;89.29
31771;BME280;18343;50.152;8.182;2022-09-29T08:30:27;96051.94;;;8.45;89.12
31771;BME280;18343;50.152;8.182;2022-09-29T08:32:53;96056.84;;;8.48;89.58
31771;BME280;18343;50.152;8.182;2022-09-29T08:35:20;96057.47;;;8.51;89.78
31771;BME280;18343;50.152;8.182;2022-09-29T08:37:47;96056.22;;;8.53;89.98
31771;BME280;18343;50.152;8.182;2022-09-29T08:40:15;96066.72;;;8.55;90.14
31771;BME280;18343;50.152;8.182;2022-09-29T08:42:53;96068.38;;;8.56;89.77
31771;BME280;18343;50.152;8.182;2022-09-29T08:45:28;96063.41;;;8.59;90.23
31771;BME280;18343;50.152;8.182;2022-09-29T08:48:03;96061.56;;;8.60;90.01
31771;BME280;18343;50.152;8.182;2022-09-29T08:50:35;96058.44;;;8.63;90.42
31771;BME280;18343;50.152;8.182;2022-09-29T08:53:07;96074.31;;;8.64;90.48
31771;BME280;18343;50.152;8.182;2022-09-29T08:55:43;96073.06;;;8.67;90.72
31771;BME280;18343;50.152;8.182;2022-09-29T08:58:13;96078.00;;;8.70;91.25
31771;BME280;18343;50.152;8.182;2022-09-29T09:00:48;96072.44;;;8.71;91.12
31771;BME280;18343;50.152;8.182;2022-09-29T09:06:35;96076.75;;;8.72;91.30
31771;BME280;18343;50.152;8.182;2022-09-29T09:09:37;96078.41;;;8.73;91.05
31771;BME280;18343;50.152;8.182;2022-09-29T09:12:24;96080.63;;;8.76;91.37
31771;BME280;18343;50.152;8.182;2022-09-29T09:15:17;96077.94;;;8.76;91.56
31771;BME280;18343;50.152;8.182;2022-09-29T09:18:09;96083.09;;;8.78;91.64
31771;BME280;18343;50.152;8.182;2022-09-29T09:20:46;96084.53;;;8.80;91.83
31771;BME280;18343;50.152;8.182;2022-09-29T09:23:21;96082.47;;;8.82;92.32
31771;BME280;18343;50.152;8.182;2022-09-29T09:25:52;96079.56;;;8.84;92.54
31771;BME280;18343;50.152;8.182;2022-09-29T09:28:27;96081.22;;;8.85;92.70
31771;BME280;18343;50.152;8.182;2022-09-29T09:31:00;96085.31;;;8.88;92.71
31771;BME280;18343;50.152;8.182;2022-09-29T09:33:33;96092.13;;;8.90;93.14
31771;BME280;18343;50.152;8.182;2022-09-29T09:36:07;96086.75;;;8.90;93.12
31771;BME280;18343;50.152;8.182;2022-09-29T09:38:49;96092.72;;;8.92;92.99
31771;BME280;18343;50.152;8.182;2022-09-29T09:41:22;96090.66;;;8.94;93.50
31771;BME280;18343;50.152;8.182;2022-09-29T09:43:55;96095.81;;;8.96;93.39
31771;BME280;18343;50.152;8.182;2022-09-29T09:46:28;96089.41;;;8.97;93.80
31771;BME280;18343;50.152;8.182;2022-09-29T09:49:04;96091.88;;;8.98;93.67
31771;BME280;18343;50.152;8.182;2022-09-29T09:51:44;96089.78;;;9.00;94.11
31771;BME280;18343;50.152;8.182;2022-09-29T09:54:18;96102.53;;;9.05;94.14
31771;BME280;18343;50.152;8.182;2022-09-29T09:57:09;96092.63;;;9.05;94.07
31771;BME280;18343;50.152;8.182;2022-09-29T09:59:53;96098.59;;;9.07;94.41
31771;BME280;18343;50.152;8.182;2022-09-29T10:02:25;96101.88;;;9.09;95.02
31771;BME280;18343;50.152;8.182;2022-09-29T10:04:52;96099.81;;;9.11;94.84
31771;BME280;18343;50.152;8.182;2022-09-29T10:07:22;96100.41;;;9.13;95.05
31771;BME280;18343;50.152;8.182;2022-09-29T10:09:50;96101.03;;;9.15;95.30
31771;BME280;18343;50.152;8.182;2022-09-29T10:12:20;96100.81;;;9.17;95.30
31771;BME280;18343;50.152;8.182;2022-09-29T10:14:52;96104.94;;;9.20;95.20
31771;BME280;18343;50.152;8.182;2022-09-29T10:17:24;96102.03;;;9.21;95.46
31771;BME280;18343;50.152;8.182;2022-09-29T10:19:56;96103.47;;;9.24;95.73
31771;BME280;18343;50.152;8.182;2022-09-29T10:22:24;96102.41;;;9.25;96.08
31771;BME280;18343;50.152;8.182;2022-09-29T10:24:52;96106.53;;;9.27;95.85
31771;BME280;18343;50.152;8.182;2022-09-29T10:27:23;96106.91;;;9.31;95.92
31771;BME280;18343;50.152;8.182;2022-09-29T10:29:54;96103.78;;;9.34;96.49
31771;BME280;18343;50.152;8.182;2022-09-29T10:32:28;96108.13;;;9.35;96.26
31771;BME280;18343;50.152;8.182;2022-09-29T10:35:07;96111.41;;;9.37;96.31
31771;BME280;18343;50.152;8.182;2022-09-29T10:37:45;96115.50;;;9.39;96.81
31771;BME280;18343;50.152;8.182;2022-09-29T10:40:17;96109.09;;;9.40;96.95
31771;BME280;18343;50.152;8.182;2022-09-29T10:42:46;96116.13;;;9.41;96.54
31771;BME280;18343;50.152;8.182;2022-09-29T10:45:16;96116.72;;;9.43;97.07
31771;BME280;18343;50.152;8.182;2022-09-29T10:47:46;96123.31;;;9.47;97.39
31771;BME280;18343;50.152;8.182;2022-09-29T10:50:17;96120.41;;;9.49;97.42
31771;BME280;18343;50.152;8.182;2022-09-29T10:52:50;96123.47;;;9.53;97.38
31771;BME280;18343;50.152;8.182;2022-09-29T10:55:20;96119.53;;;9.55;97.54
31771;BME280;18343;50.152;8.182;2022-09-29T10:57:48;96114.78;;;9.57;98.02
31771;BME280;18343;50.152;8.182;2022-09-29T11:00:28;96121.75;;;9.58;97.78
31771;BME280;18343;50.152;8.182;2022-09-29T11:03:05;96132.06;;;9.61;97.98
31771;BME280;18343;50.152;8.182;2022-09-29T11:05:33;96122.75;;;9.64;98.09
31771;BME280;18343;50.152;8.182;2022-09-29T11:08:01;96121.50;;;9.66;98.28
31771;BME280;18343;50.152;8.182;2022-09-29T11:10:31;96121.06;;;9.69;98.38
31771;BME280;18343;50.152;8.182;2022-09-29T11:12:58;96129.72;;;9.71;98.44
31771;BME280;18343;50.152;8.182;2022-09-29T11:15:40;96132.78;;;9.75;98.73
31771;BME280;18343;50.152;8.182;2022-09-29T11:18:18;96132.56;;;9.76;98.55
31771;BME280;18343;50.152;8.182;2022-09-29T11:20:55;96128.84;;;9.77;98.86
31771;BME280;18343;50.152;8.182;2022-09-29T11:23:31;96135.66;;;9.80;99.00
31771;BME280;18343;50.152;8.182;2022-09-29T11:26:20;96139.75;;;9.82;98.91
31771;BME280;18343;50.152;8.182;2022-09-29T11:29:12;96133.09;;;9.85;99.09
31771;BME280;18343;50.152;8.182;2022-09-29T11:32:04;96137.22;;;9.88;99.43
31771;BME280;18343;50.152;8.182;2022-09-29T11:34:55;96141.31;;;9.90;99.55
31771;BME280;18343;50.152;8.182;2022-09-29T11:37:39;96140.88;;;9.93;99.80
31771;BME280;18343;50.152;8.182;2022-09-29T11:40:13;96132.38;;;9.96;100.00
31771;BME280;18343;50.152;8.182;2022-09-29T11:42:57;96140.00;;;9.99;100.00
31771;BME280;18343;50.152;8.182;2022-09-29T11:45:36;96138.75;;;10.02;100.00
31771;BME280;18343;50.152;8.182;2022-09-29T11:48:34;96134.81;;;10.04;100.00
31771;BME280;18343;50.152;8.182;2022-09-29T11:51:14;96139.13;;;10.05;100.00
31771;BME280;18343;50.152;8.182;2022-09-29T11:54:02;96140.56;;;10.08;100.00
31771;BME280;18343;50.152;8.182;2022-09-29T11:56:38;96142.81;;;10.11;100.00
31771;BME280;18343;50.152;8.182;2022-09-29T11:59:31;96138.00;;;10.13;100.00
31771;BME280;18343;50.152;8.182;2022-09-29T12:02:27;96137.56;;;10.16;100.00
31771;BME280;18343;50.152;8.182;2022-09-29T12:05:11;96140.66;;;10.20;100.00
31771;BME280;18343;50.152;8.182;2022-09-29T12:07:52;96137.75;;;10.21;100.00
31771;BME280;18343;50.152;8.182;2022-09-29T12:10:37;96132.97;;;10.23;100.00
31771;BME280;18343;50.152;8.182;2022-09-29T12:13:19;96134.41;;;10.26;100.00
31771;BME280;18343;50.152;8.182;2022-09-29T12:15:52;96136.66;;;10.29;100.00
31771;BME280;18343;50.152;8.182;2022-09-29T12:18:26;96134.94;;;10.34;100.00
31771;BME280;18343;50.152;8.182;2022-09-29T12:20:55;96138.25;;;10.36;100.00
31771;BME280;18343;50.152;8.182;2022-09-29T12:23:26;96139.41;;;10.40;100.00
31771;BME280;18343;50.152;8.182;2022-09-29T12:26:00;96140.00;;;10.42;100.00
31771;BME280;18343;50.152;8.182;2022-09-29T12:28:35;96142.25;;;10.45;100.00
31771;BME280;18343;50.152;8.182;2022-09-29T12:31:09;96140.16;;;10.47;100.00
31771;BME280;18343;50.152;8.182;2022-09-29T12:33:43;96140.53;;;10.51;100.00
31771;BME280;18343;50.152;8.182;2022-09-29T12:36:37;96141.38;;;10.51;100.00
31771;BME280;18343;50.152;8.182;2022-09-29T12:39:43;96142.78;;;10.54;100.00
31771;BME280;18343;50.152;8.182;2022-09-29T12:42:41;96138.81;;;10.57;100.00
31771;BME280;18343;50.152;8.182;2022-09-29T12:45:20;96141.06;;;10.60;100.00
31771;BME280;18343;50.152;8.182;2022-09-29T12:48:20;96143.75;;;10.60;100.00
31771;BME280;18343;50.152;8.182;2022-09-29T12:50:58;96140.63;;;10.63;100.00
31771;BME280;18343;50.152;8.182;2022-09-29T12:53:32;96139.38;;;10.65;100.00
31771;BME280;18343;50.152;8.182;2022-09-29T12:56:01;96141.22;;;10.65;100.00
31771;BME280;18343;50.152;8.182;2022-09-29T12:58:38;96134.81;;;10.66;100.00
31771;BME280;18343;50.152;8.182;2022-09-29T13:01:21;96141.34;;;10.70;100.00
31771;BME280;18343;50.152;8.182;2022-09-29T13:07:50;96139.41;;;10.77;100.00
31771;BME280;18343;50.152;8.182;2022-09-29T13:11:01;96136.88;;;10.82;100.00
31771;BME280;18343;50.152;8.182;2022-09-29T13:13:58;96142.03;;;10.83;100.00
31771;BME280;18343;50.152;8.182;2022-09-29T13:16:45;96132.69;;;10.86;100.00
31771;BME280;18343;50.152;8.182;2022-09-29T13:19:41;96140.31;;;10.89;100.00
31771;BME280;18343;50.152;8.182;2022-09-29T13:25:20;96140.41;;;10.94;100.00
31771;BME280;18343;50.152;8.182;2022-09-29T13:27:50;96134.38;;;10.99;100.00
31771;BME280;18343;50.152;8.182;2022-09-29T13:30:20;96140.13;;;11.02;100.00
31771;BME280;18343;50.152;8.182;2022-09-29T13:32:50;96133.69;;;11.03;100.00
31771;BME280;18343;50.152;8.182;2022-09-29T13:35:20;96135.09;;;11.06;100.00
31771;BME280;18343;50.152;8.182;2022-09-29T13:37:51;96134.06;;;11.07;100.00
31771;BME280;18343;50.152;8.182;2022-09-29T13:40:22;96133.84;;;11.08;100.00
31771;BME280;18343;50.152;8.182;2022-09-29T13:42:50;96134.44;;;11.10;100.00
31771;BME280;18343;50.152;8.182;2022-09-29T13:45:41;96139.81;;;11.10;100.00
31771;BME280;18343;50.152;8.182;2022-09-29T13:48:36;96143.09;;;11.12;100.00